sensor_id;sensor_type;location;lat;lon;timestamp;pressure;altitude;pressure_sealevel;temperature;humidity
79006;BME280;69202;45.498;-73.582;2023-10-19T00:00:48;101243.63;;;18.58;52.77
79006;BME280;69202;45.498;-73.582;2023-10-19T00:03:17;101222.56;;;18.47;52.43
79006;BME280;69202;45.498;-73.582;2023-10-19T00:05:44;101253.19;;;18.67;52.15
79006;BME280;69202;45.498;-73.582;2023-10-19T00:08:13;101252.09;;;18.68;52.53
79006;BME280;69202;45.498;-73.582;2023-10-19T00:10:42;101248.88;;;18.71;52.51
79006;BME280;69202;45.498;-73.582;2023-10-19T00:13:10;101250.44;;;18.67;52.17
79006;BME280;69202;45.498;-73.582;2023-10-19T00:15:41;101246.38;;;18.58;52.06
79006;BME280;69202;45.498;-73.582;2023-10-19T00:18:27;101250.44;;;18.56;52.60
79006;BME280;69202;45.498;-73.582;2023-10-19T00:20:58;101253.16;;;18.56;52.33
79006;BME280;69202;45.498;-73.582;2023-10-19T00:23:42;101235.28;;;18.41;52.80
79006;BME280;69202;45.498;-73.582;2023-10-19T00:26:08;101252.69;;;18.47;52.86
79006;BME280;69202;45.498;-73.582;2023-10-19T00:28:36;101249.59;;;18.55;52.58
79006;BME280;69202;45.498;-73.582;2023-10-19T00:31:04;101254.44;;;18.53;52.53
79006;BME280;69202;45.498;-73.582;2023-10-19T00:33:34;101231.63;;;18.36;52.80
79006;BME280;69202;45.498;-73.582;2023-10-19T00:36:09;101258.25;;;18.52;52.68
79006;BME280;69202;45.498;-73.582;2023-10-19T00:38:39;101259.59;;;18.50;52.62
79006;BME280;69202;45.498;-73.582;2023-10-19T00:41:13;101264.47;;;18.48;52.72
79006;BME280;69202;45.498;-73.582;2023-10-19T00:43:45;101267.06;;;18.42;52.80
79006;BME280;69202;45.498;-73.582;2023-10-19T00:46:15;101271.47;;;18.43;52.78
79006;BME280;69202;45.498;-73.582;2023-10-19T00:48:45;101276.50;;;18.46;52.53
79006;BME280;69202;45.498;-73.582;2023-10-19T00:51:14;101266.47;;;18.40;52.68
79006;BME280;69202;45.498;-73.582;2023-10-19T00:54:23;101262.56;;;18.36;52.74
79006;BME280;69202;45.498;-73.582;2023-10-19T00:56:57;101277.56;;;18.45;52.46
79006;BME280;69202;45.498;-73.582;2023-10-19T00:59:29;101190.91;;;17.93;53.01
79006;BME280;69202;45.498;-73.582;2023-10-19T01:01:56;101246.59;;;18.22;52.83
79006;BME280;69202;45.498;-73.582;2023-10-19T01:04:41;101279.47;;;18.45;52.64
79006;BME280;69202;45.498;-73.582;2023-10-19T01:07:09;101285.91;;;18.51;52.49
79006;BME280;69202;45.498;-73.582;2023-10-19T01:09:43;101276.50;;;18.46;52.49
79006;BME280;69202;45.498;-73.582;2023-10-19T01:12:12;101273.16;;;18.44;52.16
79006;BME280;69202;45.498;-73.582;2023-10-19T01:17:47;101271.84;;;18.47;52.34
79006;BME280;69202;45.498;-73.582;2023-10-19T01:20:18;101269.56;;;18.44;52.42
79006;BME280;69202;45.498;-73.582;2023-10-19T01:23:06;101280.66;;;18.49;52.58
79006;BME280;69202;45.498;-73.582;2023-10-19T01:28:24;101274.59;;;18.47;52.31
79006;BME280;69202;45.498;-73.582;2023-10-19T01:31:14;101275.78;;;18.39;52.35
79006;BME280;69202;45.498;-73.582;2023-10-19T01:33:57;101275.53;;;18.41;52.20
79006;BME280;69202;45.498;-73.582;2023-10-19T01:36:25;101282.44;;;18.43;52.31
79006;BME280;69202;45.498;-73.582;2023-10-19T01:38:52;101279.69;;;18.43;51.93
79006;BME280;69202;45.498;-73.582;2023-10-19T01:41:26;101280.53;;;18.44;52.43
79006;BME280;69202;45.498;-73.582;2023-10-19T01:43:53;101274.22;;;18.43;52.54
79006;BME280;69202;45.498;-73.582;2023-10-19T01:46:20;101279.94;;;18.42;52.49
79006;BME280;69202;45.498;-73.582;2023-10-19T01:48:52;101281.84;;;18.30;52.34
79006;BME280;69202;45.498;-73.582;2023-10-19T01:51:26;101280.75;;;18.31;52.57
79006;BME280;69202;45.498;-73.582;2023-10-19T01:53:56;101263.63;;;18.24;52.61
79006;BME280;69202;45.498;-73.582;2023-10-19T01:56:23;101281.75;;;18.36;52.64
79006;BME280;69202;45.498;-73.582;2023-10-19T01:58:50;101272.19;;;18.27;52.82
79006;BME280;69202;45.498;-73.582;2023-10-19T02:01:20;101281.84;;;18.30;52.75
79006;BME280;69202;45.498;-73.582;2023-10-19T02:03:47;101270.28;;;18.28;52.73
79006;BME280;69202;45.498;-73.582;2023-10-19T02:06:20;101278.03;;;18.31;52.27
79006;BME280;69202;45.498;-73.582;2023-10-19T02:11:19;101282.44;;;18.32;52.63
79006;BME280;69202;45.498;-73.582;2023-10-19T02:13:46;101278.84;;;18.31;52.75
79006;BME280;69202;45.498;-73.582;2023-10-19T02:16:13;101285.16;;;18.32;52.35
79006;BME280;69202;45.498;-73.582;2023-10-19T02:18:42;101278.03;;;18.31;52.93
79006;BME280;69202;45.498;-73.582;2023-10-19T02:21:09;101271.22;;;18.33;52.66
79006;BME280;69202;45.498;-73.582;2023-10-19T02:23:39;101271.03;;;18.35;52.95
79006;BME280;69202;45.498;-73.582;2023-10-19T02:26:10;101273.50;;;18.25;52.76
79006;BME280;69202;45.498;-73.582;2023-10-19T02:28:39;101285.06;;;18.27;52.87
79006;BME280;69202;45.498;-73.582;2023-10-19T02:31:05;101275.28;;;18.31;52.77
79006;BME280;69202;45.498;-73.582;2023-10-19T02:33:42;101276.59;;;18.28;52.86
79006;BME280;69202;45.498;-73.582;2023-10-19T02:36:20;101269.81;;;18.19;52.93
79006;BME280;69202;45.498;-73.582;2023-10-19T02:38:46;101268.25;;;18.11;53.47
79006;BME280;69202;45.498;-73.582;2023-10-19T02:41:17;101268.50;;;18.22;53.06
79006;BME280;69202;45.498;-73.582;2023-10-19T02:43:45;101265.50;;;18.23;53.24
79006;BME280;69202;45.498;-73.582;2023-10-19T02:46:29;101265.91;;;18.27;53.09
79006;BME280;69202;45.498;-73.582;2023-10-19T02:49:05;101256.13;;;18.19;53.21
79006;BME280;69202;45.498;-73.582;2023-10-19T02:51:36;101259.34;;;18.28;52.74
79006;BME280;69202;45.498;-73.582;2023-10-19T02:54:03;101259.22;;;18.23;52.43
79006;BME280;69202;45.498;-73.582;2023-10-19T02:56:29;101261.72;;;18.24;52.95
79006;BME280;69202;45.498;-73.582;2023-10-19T02:59:01;101263.16;;;18.27;53.04
79006;BME280;69202;45.498;-73.582;2023-10-19T03:01:30;101262.09;;;18.28;52.91
79006;BME280;69202;45.498;-73.582;2023-10-19T03:03:59;101254.69;;;18.28;53.04
79006;BME280;69202;45.498;-73.582;2023-10-19T03:06:26;101252.31;;;18.32;52.87
79006;BME280;69202;45.498;-73.582;2023-10-19T03:08:57;101252.06;;;18.33;52.90
79006;BME280;69202;45.498;-73.582;2023-10-19T03:11:42;101254.81;;;18.33;52.98
79006;BME280;69202;45.498;-73.582;2023-10-19T03:14:12;101257.69;;;18.27;52.90
79006;BME280;69202;45.498;-73.582;2023-10-19T03:16:39;101251.63;;;18.25;52.63
79006;BME280;69202;45.498;-73.582;2023-10-19T03:19:08;101259.34;;;18.16;52.89
79006;BME280;69202;45.498;-73.582;2023-10-19T03:21:36;101261.69;;;18.12;53.11
79006;BME280;69202;45.498;-73.582;2023-10-19T03:24:15;101250.88;;;18.17;52.69
79006;BME280;69202;45.498;-73.582;2023-10-19T03:27:00;101249.81;;;18.07;53.69
79006;BME280;69202;45.498;-73.582;2023-10-19T03:29:26;101239.09;;;18.05;53.50
79006;BME280;69202;45.498;-73.582;2023-10-19T03:31:57;101252.78;;;18.17;53.22
79006;BME280;69202;45.498;-73.582;2023-10-19T03:34:27;101251.13;;;18.04;52.86
79006;BME280;69202;45.498;-73.582;2023-10-19T03:36:52;101252.03;;;17.98;54.08
79006;BME280;69202;45.498;-73.582;2023-10-19T03:39:20;101249.31;;;18.10;53.49
79006;BME280;69202;45.498;-73.582;2023-10-19T03:41:46;101245.75;;;18.09;53.75
79006;BME280;69202;45.498;-73.582;2023-10-19T03:44:16;101243.34;;;18.01;53.77
79006;BME280;69202;45.498;-73.582;2023-10-19T03:46:49;101230.38;;;17.85;54.12
79006;BME280;69202;45.498;-73.582;2023-10-19T03:49:29;101236.38;;;18.05;53.37
79006;BME280;69202;45.498;-73.582;2023-10-19T03:52:04;101239.09;;;18.05;53.95
79006;BME280;69202;45.498;-73.582;2023-10-19T03:54:34;101236.38;;;18.05;53.82
79006;BME280;69202;45.498;-73.582;2023-10-19T03:57:04;101227.19;;;18.00;53.98
79006;BME280;69202;45.498;-73.582;2023-10-19T03:59:45;101230.75;;;18.00;53.62
79006;BME280;69202;45.498;-73.582;2023-10-19T04:02:13;101227.91;;;18.07;53.88
79006;BME280;69202;45.498;-73.582;2023-10-19T04:04:40;101228.41;;;18.15;53.67
79006;BME280;69202;45.498;-73.582;2023-10-19T04:07:09;101227.31;;;18.16;53.73
79006;BME280;69202;45.498;-73.582;2023-10-19T04:09:55;101224.84;;;18.15;53.61
79006;BME280;69202;45.498;-73.582;2023-10-19T04:12:34;101223.03;;;18.09;53.58
79006;BME280;69202;45.498;-73.582;2023-10-19T04:15:05;101236.22;;;18.12;53.28
79006;BME280;69202;45.498;-73.582;2023-10-19T04:17:37;101230.06;;;18.05;53.86
79006;BME280;69202;45.498;-73.582;2023-10-19T04:20:09;101239.34;;;18.04;53.99
79006;BME280;69202;45.498;-73.582;2023-10-19T04:22:54;101224.06;;;17.84;54.34
79006;BME280;69202;45.498;-73.582;2023-10-19T04:25:20;101238.47;;;17.92;54.21
79006;BME280;69202;45.498;-73.582;2023-10-19T04:27:50;101232.16;;;18.03;54.04
79006;BME280;69202;45.498;-73.582;2023-10-19T04:30:17;101225.19;;;18.07;53.60
79006;BME280;69202;45.498;-73.582;2023-10-19T04:32:53;101233.72;;;18.10;53.54
79006;BME280;69202;45.498;-73.582;2023-10-19T04:35:21;101218.50;;;18.03;52.65
79006;BME280;69202;45.498;-73.582;2023-10-19T04:37:50;101237.44;;;18.04;53.82
79006;BME280;69202;45.498;-73.582;2023-10-19T04:40:21;101236.13;;;18.07;53.62
79006;BME280;69202;45.498;-73.582;2023-10-19T04:42:51;101227.66;;;18.08;53.56
79006;BME280;69202;45.498;-73.582;2023-10-19T04:45:18;101205.19;;;17.95;53.51
79006;BME280;69202;45.498;-73.582;2023-10-19T04:47:44;101203.88;;;17.97;53.54
79006;BME280;69202;45.498;-73.582;2023-10-19T04:50:10;101235.53;;;18.16;53.18
79006;BME280;69202;45.498;-73.582;2023-10-19T04:52:37;101233.50;;;18.12;53.49
79006;BME280;69202;45.498;-73.582;2023-10-19T04:55:03;101233.63;;;18.17;52.86
79006;BME280;69202;45.498;-73.582;2023-10-19T04:57:29;101234.69;;;18.04;53.52
79006;BME280;69202;45.498;-73.582;2023-10-19T04:59:56;101239.94;;;18.06;53.38
79006;BME280;69202;45.498;-73.582;2023-10-19T05:02:23;101236.13;;;18.07;53.65
79006;BME280;69202;45.498;-73.582;2023-10-19T05:04:49;101238.75;;;18.13;53.47
79006;BME280;69202;45.498;-73.582;2023-10-19T05:07:15;101238.38;;;18.10;53.45
79006;BME280;69202;45.498;-73.582;2023-10-19T05:09:45;101242.28;;;18.02;53.72
79006;BME280;69202;45.498;-73.582;2023-10-19T05:12:11;101236.13;;;18.07;53.60
79006;BME280;69202;45.498;-73.582;2023-10-19T05:14:38;101242.91;;;18.04;53.33
79006;BME280;69202;45.498;-73.582;2023-10-19T05:17:05;101235.97;;;18.02;53.39
79006;BME280;69202;45.498;-73.582;2023-10-19T05:19:35;101234.06;;;17.91;53.88
79006;BME280;69202;45.498;-73.582;2023-10-19T05:22:04;101235.38;;;18.00;53.91
79006;BME280;69202;45.498;-73.582;2023-10-19T05:24:34;101239.34;;;18.04;53.55
79006;BME280;69202;45.498;-73.582;2023-10-19T05:27:00;101240.38;;;18.03;53.74
79006;BME280;69202;45.498;-73.582;2023-10-19T05:29:26;101241.25;;;18.03;53.35
79006;BME280;69202;45.498;-73.582;2023-10-19T05:31:53;101242.06;;;18.04;53.45
79006;BME280;69202;45.498;-73.582;2023-10-19T05:34:23;101245.63;;;17.93;53.48
79006;BME280;69202;45.498;-73.582;2023-10-19T05:36:49;101241.91;;;17.87;54.12
79006;BME280;69202;45.498;-73.582;2023-10-19T05:39:16;101239.53;;;17.91;53.66
79006;BME280;69202;45.498;-73.582;2023-10-19T05:41:42;101199.78;;;17.76;53.67
79006;BME280;69202;45.498;-73.582;2023-10-19T05:44:08;101238.84;;;17.95;53.61
79006;BME280;69202;45.498;-73.582;2023-10-19T05:46:35;101232.66;;;18.00;53.83
79006;BME280;69202;45.498;-73.582;2023-10-19T05:49:02;101230.25;;;17.92;54.00
79006;BME280;69202;45.498;-73.582;2023-10-19T05:51:30;101222.28;;;17.90;54.01
79006;BME280;69202;45.498;-73.582;2023-10-19T05:53:56;101223.84;;;17.98;53.75
79006;BME280;69202;45.498;-73.582;2023-10-19T05:56:31;101229.66;;;18.01;53.80
79006;BME280;69202;45.498;-73.582;2023-10-19T05:59:00;101232.66;;;18.00;53.46
79006;BME280;69202;45.498;-73.582;2023-10-19T06:01:26;101230.03;;;17.93;53.20
79006;BME280;69202;45.498;-73.582;2023-10-19T06:03:52;101223.03;;;17.97;53.68
79006;BME280;69202;45.498;-73.582;2023-10-19T06:06:21;101224.59;;;18.05;53.63
79006;BME280;69202;45.498;-73.582;2023-10-19T06:08:47;101224.34;;;18.06;53.41
79006;BME280;69202;45.498;-73.582;2023-10-19T06:11:13;101226.84;;;18.08;53.65
79006;BME280;69202;45.498;-73.582;2023-10-19T06:13:39;101227.44;;;18.10;53.51
79006;BME280;69202;45.498;-73.582;2023-10-19T06:16:05;101230.88;;;18.05;53.52
79006;BME280;69202;45.498;-73.582;2023-10-19T06:18:31;101229.44;;;18.03;53.34
79006;BME280;69202;45.498;-73.582;2023-10-19T06:20:57;101238.13;;;18.00;53.66
79006;BME280;69202;45.498;-73.582;2023-10-19T06:23:23;101231.34;;;18.02;53.40
79006;BME280;69202;45.498;-73.582;2023-10-19T06:25:49;101236.38;;;18.05;53.48
79006;BME280;69202;45.498;-73.582;2023-10-19T06:28:17;101227.06;;;17.95;53.27
79006;BME280;69202;45.498;-73.582;2023-10-19T06:30:43;101224.69;;;17.98;53.65
79006;BME280;69202;45.498;-73.582;2023-10-19T06:33:10;101232.88;;;17.98;53.85
79006;BME280;69202;45.498;-73.582;2023-10-19T06:35:36;101229.09;;;17.99;52.82
79006;BME280;69202;45.498;-73.582;2023-10-19T06:38:03;101227.66;;;17.97;53.37
79006;BME280;69202;45.498;-73.582;2023-10-19T06:40:30;101226.94;;;18.01;53.52
79006;BME280;69202;45.498;-73.582;2023-10-19T06:42:59;101222.44;;;17.95;53.22
79006;BME280;69202;45.498;-73.582;2023-10-19T06:45:25;101213.75;;;17.98;53.40
79006;BME280;69202;45.498;-73.582;2023-10-19T06:47:52;101220.50;;;17.84;53.48
79006;BME280;69202;45.498;-73.582;2023-10-19T06:50:22;101220.25;;;17.74;54.38
79006;BME280;69202;45.498;-73.582;2023-10-19T06:52:49;101225.25;;;17.88;53.58
79006;BME280;69202;45.498;-73.582;2023-10-19T06:55:17;101218.03;;;17.94;53.28
79006;BME280;69202;45.498;-73.582;2023-10-19T06:57:48;101224.78;;;17.92;53.88
79006;BME280;69202;45.498;-73.582;2023-10-19T07:00:16;101220.75;;;17.94;53.67
79006;BME280;69202;45.498;-73.582;2023-10-19T07:02:49;101223.25;;;17.96;53.60
79006;BME280;69202;45.498;-73.582;2023-10-19T07:05:16;101223.59;;;17.87;53.11
79006;BME280;69202;45.498;-73.582;2023-10-19T07:07:56;101216.56;;;17.92;53.93
79006;BME280;69202;45.498;-73.582;2023-10-19T07:10:23;101223.25;;;17.96;53.69
79006;BME280;69202;45.498;-73.582;2023-10-19T07:12:54;101211.72;;;17.94;53.43
79006;BME280;69202;45.498;-73.582;2023-10-19T07:15:20;101222.78;;;17.99;53.54
79006;BME280;69202;45.498;-73.582;2023-10-19T07:17:49;101217.91;;;18.01;53.40
79006;BME280;69202;45.498;-73.582;2023-10-19T07:20:16;101221.34;;;17.96;53.67
79006;BME280;69202;45.498;-73.582;2023-10-19T07:22:53;101179.56;;;17.77;53.29
79006;BME280;69202;45.498;-73.582;2023-10-19T07:25:20;101229.81;;;17.95;53.46
79006;BME280;69202;45.498;-73.582;2023-10-19T07:27:50;101199.31;;;17.79;53.63
79006;BME280;69202;45.498;-73.582;2023-10-19T07:30:17;101187.53;;;17.79;53.58
79006;BME280;69202;45.498;-73.582;2023-10-19T07:32:48;101226.69;;;18.03;53.50
79006;BME280;69202;45.498;-73.582;2023-10-19T07:35:21;101222.91;;;18.04;53.35
79006;BME280;69202;45.498;-73.582;2023-10-19T07:37:48;101221.00;;;18.04;53.44
79006;BME280;69202;45.498;-73.582;2023-10-19T07:40:16;101216.00;;;18.01;52.99
79006;BME280;69202;45.498;-73.582;2023-10-19T07:42:46;101219.28;;;17.80;53.69
79006;BME280;69202;45.498;-73.582;2023-10-19T07:45:14;101209.41;;;17.79;52.81
79006;BME280;69202;45.498;-73.582;2023-10-19T07:47:41;101216.69;;;17.73;54.19
79006;BME280;69202;45.498;-73.582;2023-10-19T07:50:08;101224.75;;;17.80;53.81
79006;BME280;69202;45.498;-73.582;2023-10-19T07:52:45;101212.91;;;17.86;54.01
79006;BME280;69202;45.498;-73.582;2023-10-19T07:55:12;101219.69;;;17.83;53.92
79006;BME280;69202;45.498;-73.582;2023-10-19T07:57:39;101215.03;;;17.84;53.64
79006;BME280;69202;45.498;-73.582;2023-10-19T08:00:10;101218.72;;;17.89;53.81
79006;BME280;69202;45.498;-73.582;2023-10-19T08:02:39;101222.19;;;17.85;53.45
79006;BME280;69202;45.498;-73.582;2023-10-19T08:05:11;101216.31;;;17.81;53.51
79006;BME280;69202;45.498;-73.582;2023-10-19T08:07:38;101217.88;;;17.89;53.75
79006;BME280;69202;45.498;-73.582;2023-10-19T08:10:13;101222.19;;;17.85;53.73
79006;BME280;69202;45.498;-73.582;2023-10-19T08:12:42;101219.78;;;17.88;53.75
79006;BME280;69202;45.498;-73.582;2023-10-19T08:15:09;101221.69;;;17.76;53.66
79006;BME280;69202;45.498;-73.582;2023-10-19T08:17:43;101213.13;;;17.73;53.94
79006;BME280;69202;45.498;-73.582;2023-10-19T08:20:11;101209.66;;;17.77;53.99
79006;BME280;69202;45.498;-73.582;2023-10-19T08:22:54;101218.47;;;17.79;54.03
79006;BME280;69202;45.498;-73.582;2023-10-19T08:25:23;101205.53;;;17.86;53.72
79006;BME280;69202;45.498;-73.582;2023-10-19T08:27:49;101211.25;;;17.97;53.54
79006;BME280;69202;45.498;-73.582;2023-10-19T08:30:17;101206.13;;;18.00;53.53
79006;BME280;69202;45.498;-73.582;2023-10-19T08:32:44;101201.47;;;18.01;52.59
79006;BME280;69202;45.498;-73.582;2023-10-19T08:35:15;101197.06;;;17.88;53.21
79006;BME280;69202;45.498;-73.582;2023-10-19T08:37:43;101200.41;;;17.90;53.75
79006;BME280;69202;45.498;-73.582;2023-10-19T08:40:12;101190.19;;;17.97;53.68
79006;BME280;69202;45.498;-73.582;2023-10-19T08:42:43;101183.53;;;17.93;53.31
79006;BME280;69202;45.498;-73.582;2023-10-19T08:45:10;101184.72;;;17.97;53.23
79006;BME280;69202;45.498;-73.582;2023-10-19T08:47:44;101199.78;;;17.76;52.68
79006;BME280;69202;45.498;-73.582;2023-10-19T08:50:14;101200.22;;;17.62;53.70
79006;BME280;69202;45.498;-73.582;2023-10-19T08:52:55;101199.06;;;17.69;53.77
79006;BME280;69202;45.498;-73.582;2023-10-19T08:55:21;101199.16;;;17.63;53.55
79006;BME280;69202;45.498;-73.582;2023-10-19T08:57:51;101196.31;;;17.69;54.19
79006;BME280;69202;45.498;-73.582;2023-10-19T09:00:18;101200.72;;;17.70;54.28
79006;BME280;69202;45.498;-73.582;2023-10-19T09:02:47;101172.50;;;17.58;53.97
79006;BME280;69202;45.498;-73.582;2023-10-19T09:05:14;101193.00;;;17.79;53.99
79006;BME280;69202;45.498;-73.582;2023-10-19T09:07:54;101196.59;;;17.91;53.65
79006;BME280;69202;45.498;-73.582;2023-10-19T09:10:26;101194.69;;;17.92;53.37
79006;BME280;69202;45.498;-73.582;2023-10-19T09:13:02;101196.50;;;17.98;53.50
79006;BME280;69202;45.498;-73.582;2023-10-19T09:15:28;101192.09;;;17.97;53.52
79006;BME280;69202;45.498;-73.582;2023-10-19T09:20:45;101197.31;;;17.98;53.57
79006;BME280;69202;45.498;-73.582;2023-10-19T09:23:30;101200.19;;;18.03;53.27
79006;BME280;69202;45.498;-73.582;2023-10-19T09:25:57;101204.34;;;18.06;53.21
79006;BME280;69202;45.498;-73.582;2023-10-19T09:28:24;101204.34;;;18.06;52.94
79006;BME280;69202;45.498;-73.582;2023-10-19T09:30:51;101197.22;;;18.05;53.10
79006;BME280;69202;45.498;-73.582;2023-10-19T09:33:18;101200.19;;;18.03;52.94
79006;BME280;69202;45.498;-73.582;2023-10-19T09:35:47;101199.81;;;18.00;53.17
79006;BME280;69202;45.498;-73.582;2023-10-19T09:38:17;101193.88;;;18.03;53.15
79006;BME280;69202;45.498;-73.582;2023-10-19T09:40:51;101197.66;;;18.02;53.12
79006;BME280;69202;45.498;-73.582;2023-10-19T09:43:37;101193.88;;;18.03;53.28
79006;BME280;69202;45.498;-73.582;2023-10-19T09:46:08;101201.84;;;18.04;53.01
79006;BME280;69202;45.498;-73.582;2023-10-19T09:48:43;101197.66;;;18.02;53.24
79006;BME280;69202;45.498;-73.582;2023-10-19T09:51:11;101169.38;;;17.84;53.12
79006;BME280;69202;45.498;-73.582;2023-10-19T09:53:39;101194.47;;;18.05;52.99
79006;BME280;69202;45.498;-73.582;2023-10-19T09:56:13;101197.22;;;18.05;52.56
79006;BME280;69202;45.498;-73.582;2023-10-19T09:58:45;101201.03;;;18.04;52.94
79006;BME280;69202;45.498;-73.582;2023-10-19T10:01:15;101205.66;;;18.03;52.95
79006;BME280;69202;45.498;-73.582;2023-10-19T10:03:46;101188.38;;;17.91;53.13
79006;BME280;69202;45.498;-73.582;2023-10-19T10:06:17;101197.22;;;18.05;53.03
79006;BME280;69202;45.498;-73.582;2023-10-19T10:08:46;101202.06;;;18.03;53.00
79006;BME280;69202;45.498;-73.582;2023-10-19T10:13:43;101201.63;;;18.06;52.90
79006;BME280;69202;45.498;-73.582;2023-10-19T10:16:15;101196.97;;;18.06;53.02
79006;BME280;69202;45.498;-73.582;2023-10-19T10:18:41;101195.06;;;18.07;52.87
79006;BME280;69202;45.498;-73.582;2023-10-19T10:21:20;101193.66;;;18.04;52.83
79006;BME280;69202;45.498;-73.582;2023-10-19T10:23:49;101184.38;;;18.05;52.91
79006;BME280;69202;45.498;-73.582;2023-10-19T10:26:16;101195.75;;;18.02;52.91
79006;BME280;69202;45.498;-73.582;2023-10-19T10:28:48;101186.72;;;18.02;52.85
79006;BME280;69202;45.498;-73.582;2023-10-19T10:31:21;101188.63;;;18.01;52.76
79006;BME280;69202;45.498;-73.582;2023-10-19T10:33:51;101185.44;;;18.04;52.28
79006;BME280;69202;45.498;-73.582;2023-10-19T10:36:20;101184.72;;;18.09;52.73
79006;BME280;69202;45.498;-73.582;2023-10-19T10:38:50;101184.72;;;18.09;52.75
79006;BME280;69202;45.498;-73.582;2023-10-19T10:41:21;101162.09;;;17.90;52.39
79006;BME280;69202;45.498;-73.582;2023-10-19T10:43:57;101188.75;;;18.06;52.20
79006;BME280;69202;45.498;-73.582;2023-10-19T10:46:25;101191.34;;;17.89;52.42
79006;BME280;69202;45.498;-73.582;2023-10-19T10:48:53;101194.56;;;17.86;52.80
79006;BME280;69202;45.498;-73.582;2023-10-19T10:51:19;101185.88;;;17.89;52.87
79006;BME280;69202;45.498;-73.582;2023-10-19T10:53:48;101187.09;;;17.94;52.90
79006;BME280;69202;45.498;-73.582;2023-10-19T10:56:14;101189.34;;;17.97;52.75
79006;BME280;69202;45.498;-73.582;2023-10-19T10:58:40;101191.00;;;17.98;52.78
79006;BME280;69202;45.498;-73.582;2023-10-19T11:01:07;101184.38;;;17.94;52.68
79006;BME280;69202;45.498;-73.582;2023-10-19T11:03:33;101180.91;;;17.98;52.54
79006;BME280;69202;45.498;-73.582;2023-10-19T11:06:06;101180.56;;;17.95;52.63
79006;BME280;69202;45.498;-73.582;2023-10-19T11:08:34;101177.56;;;17.96;52.15
79006;BME280;69202;45.498;-73.582;2023-10-19T11:11:03;101178.66;;;17.95;52.79
79006;BME280;69202;45.498;-73.582;2023-10-19T11:13:30;101177.44;;;17.91;52.15
79006;BME280;69202;45.498;-73.582;2023-10-19T11:15:59;101185.88;;;17.89;52.09
79006;BME280;69202;45.498;-73.582;2023-10-19T11:18:34;101129.56;;;17.58;53.05
79006;BME280;69202;45.498;-73.582;2023-10-19T11:21:02;101182.81;;;17.98;52.30
79006;BME280;69202;45.498;-73.582;2023-10-19T11:23:39;101190.66;;;17.94;53.02
79006;BME280;69202;45.498;-73.582;2023-10-19T11:26:05;101155.09;;;17.82;52.61
79006;BME280;69202;45.498;-73.582;2023-10-19T11:28:32;101175.09;;;17.95;52.96
79006;BME280;69202;45.498;-73.582;2023-10-19T11:31:31;101196.25;;;18.11;52.75
79006;BME280;69202;45.498;-73.582;2023-10-19T11:34:04;101191.84;;;18.10;52.53
79006;BME280;69202;45.498;-73.582;2023-10-19T11:36:30;101203.38;;;18.12;52.67
79006;BME280;69202;45.498;-73.582;2023-10-19T11:38:55;101205.69;;;18.15;52.58
79006;BME280;69202;45.498;-73.582;2023-10-19T11:41:22;101169.38;;;17.96;52.44
79006;BME280;69202;45.498;-73.582;2023-10-19T11:43:49;101201.63;;;18.17;52.43
79006;BME280;69202;45.498;-73.582;2023-10-19T11:46:16;101198.16;;;18.22;52.29
79006;BME280;69202;45.498;-73.582;2023-10-19T11:48:43;101183.16;;;18.01;52.40
79006;BME280;69202;45.498;-73.582;2023-10-19T11:51:10;101188.53;;;18.20;52.38
79006;BME280;69202;45.498;-73.582;2023-10-19T11:53:41;101190.31;;;18.26;52.07
79006;BME280;69202;45.498;-73.582;2023-10-19T11:56:09;101186.25;;;18.28;52.17
79006;BME280;69202;45.498;-73.582;2023-10-19T11:58:37;101180.06;;;18.33;52.18
79006;BME280;69202;45.498;-73.582;2023-10-19T12:01:06;101192.22;;;18.37;52.00
79006;BME280;69202;45.498;-73.582;2023-10-19T12:03:40;101179.59;;;18.36;51.69
79006;BME280;69202;45.498;-73.582;2023-10-19T12:06:07;101182.44;;;18.41;51.50
79006;BME280;69202;45.498;-73.582;2023-10-19T12:08:36;101177.69;;;18.36;51.55
79006;BME280;69202;45.498;-73.582;2023-10-19T12:11:04;101168.66;;;18.36;51.42
79006;BME280;69202;45.498;-73.582;2023-10-19T12:13:30;101178.53;;;18.37;51.31
79006;BME280;69202;45.498;-73.582;2023-10-19T12:15:57;101191.47;;;18.53;51.29
79006;BME280;69202;45.498;-73.582;2023-10-19T12:18:24;101195.88;;;18.54;51.36
79006;BME280;69202;45.498;-73.582;2023-10-19T12:20:54;101198.72;;;18.59;51.03
79006;BME280;69202;45.498;-73.582;2023-10-19T12:23:25;101201.22;;;18.61;50.88
79006;BME280;69202;45.498;-73.582;2023-10-19T12:25:51;101176.94;;;18.53;50.79
79006;BME280;69202;45.498;-73.582;2023-10-19T12:28:18;101173.84;;;18.49;50.60
79006;BME280;69202;45.498;-73.582;2023-10-19T12:30:44;101203.03;;;18.67;50.27
79006;BME280;69202;45.498;-73.582;2023-10-19T12:33:10;101196.00;;;18.71;50.41
79006;BME280;69202;45.498;-73.582;2023-10-19T12:35:42;101195.03;;;18.77;50.03
79006;BME280;69202;45.498;-73.582;2023-10-19T12:38:19;101173.25;;;18.59;50.16
79006;BME280;69202;45.498;-73.582;2023-10-19T12:40:47;101202.78;;;18.80;49.98
79006;BME280;69202;45.498;-73.582;2023-10-19T12:43:14;101203.94;;;18.84;50.17
79006;BME280;69202;45.498;-73.582;2023-10-19T12:45:42;101195.50;;;18.74;49.96
79006;BME280;69202;45.498;-73.582;2023-10-19T12:48:09;101175.03;;;18.77;49.83
79006;BME280;69202;45.498;-73.582;2023-10-19T12:50:37;101198.81;;;18.88;49.82
79006;BME280;69202;45.498;-73.582;2023-10-19T12:53:04;101182.13;;;18.89;49.59
79006;BME280;69202;45.498;-73.582;2023-10-19T12:55:30;101191.47;;;19.05;49.55
79006;BME280;69202;45.498;-73.582;2023-10-19T12:57:59;101193.00;;;19.13;49.57